Latest Coastal Weather Observations for Parndana

IDS60701

Issued at 6:31 pm CST Wednesday 29 June 2016 (issued every 10 minutes, with the page automatically refreshed every 10 minutes)

About coastal observations | Map of coastal stations | Coastal observations for SA | Marine services | Other Formats
Station Details ID: 022843 Name: PARNDANA CFS AWS Lat: -35.79 Lon: 137.25 Height: 165.0 m
Data from the previous 72 hours. | See also: Recent months at Parndana
Date/Time
CST
Temp
°C
Wind Pressure Rain since
9am
mm
Weather Cloud Vis
km
Sea
Height
m
Swell
Dir  Spd
kts
Gust
kts
hPa Trend Height
m
Period
s
Dir
29/06:30pm 12.1 NNW 13 21 - - 0.0 - - - - - - -
29/06:00pm 12.2 N 15 23 - - 0.0 - - - - - - -
29/05:30pm 12.2 N 16 22 - - 0.0 - - - - - - -
29/05:00pm 12.2 NNW 14 23 - - 0.0 - - - - - - -
29/04:30pm 12.3 N 15 22 - - 0.0 - - - - - - -
29/04:13pm 12.1 N 16 26 - - 0.0 - - - - - - -
29/04:00pm 12.1 N 15 24 - - 0.0 - - - - - - -
29/03:45pm 12.0 N 17 28 - - 0.0 - - - - - - -
29/03:30pm 11.9 N 17 26 - - 0.0 - - - - - - -
29/03:00pm 11.9 N 17 27 - - 0.0 - - - - - - -
29/02:47pm 11.8 N 18 28 - - 0.0 - - - - - - -
29/02:30pm 11.6 N 17 23 - - 0.0 - - - - - - -
29/02:02pm 11.3 N 16 29 - - 0.0 - - - - - - -
29/02:00pm 11.3 N 15 25 - - 0.0 - - - - - - -
29/01:39pm 11.3 N 17 27 - - 0.0 - - - - - - -
29/01:30pm 11.4 N 18 26 - - 0.0 - - - - - - -
29/01:01pm 11.4 N 17 31 - - 0.0 - - - - - - -
29/01:00pm 11.4 N 17 24 - - 0.0 - - - - - - -
29/12:46pm 11.5 N 18 30 - - 0.0 - - - - - - -
29/12:30pm 11.4 N 17 25 - - 0.0 - - - - - - -
29/12:02pm 11.6 N 21 33 - - 0.0 - - - - - - -
29/12:00pm 11.7 N 21 29 - - 0.0 - - - - - - -
29/11:33am 11.6 N 19 29 - - 0.0 - - - - - - -
29/11:30am 11.6 N 20 29 - - 0.0 - - - - - - -
29/11:00am 11.8 N 20 31 - - 0.0 - - - - - - -
29/10:31am 11.8 N 19 29 - - 0.0 - - - - - - -
29/10:30am 11.8 N 20 29 - - 0.0 - - - - - - -
29/10:00am 11.6 N 17 27 - - 0.0 - - - - - - -
29/09:43am 11.6 N 16 26 - - 0.0 - - - - - - -
29/09:30am 11.5 N 14 21 - - 0.0 - - - - - - -
29/09:00am 11.2 N 15 22 - - 5.6 - - - - - - -
29/08:30am 10.9 N 14 20 - - 5.6 - - - - - - -
29/08:00am 10.7 N 12 18 - - 5.6 - - - - - - -
29/07:30am 10.3 N 13 19 - - 5.6 - - - - - - -
29/07:00am 10.0 N 11 18 - - 5.6 - - - - - - -
29/06:30am 9.7 N 9 13 - - 5.6 - - - - - - -
29/06:00am 9.6 N 8 11 - - 5.6 - - - - - - -
29/05:30am 9.9 N 8 14 - - 5.6 - - - - - - -
29/05:00am 9.4 N 7 10 - - 5.6 - - - - - - -
29/04:30am 9.2 N 7 10 - - 5.6 - - - - - - -
29/04:00am 9.6 N 8 11 - - 5.6 - - - - - - -
29/03:30am 9.8 N 9 11 - - 5.6 - - - - - - -
29/03:00am 9.9 N 8 11 - - 5.6 - - - - - - -
29/02:30am 9.8 N 7 10 - - 5.6 - - - - - - -
29/02:00am 10.0 N 7 9 - - 5.6 - - - - - - -
29/01:30am 9.5 N 7 9 - - 5.6 - - - - - - -
29/01:00am 8.9 N 6 7 - - 5.6 - - - - - - -
29/12:30am 8.5 N 6 7 - - 5.6 - - - - - - -
29/12:00am 8.4 N 5 7 - - 5.6 - - - - - - -
 
Date/Time
CST
Temp
°C
Wind Pressure Rain since
9am
mm
Weather Cloud Vis
km
Sea
Height
m
Swell
Dir  Spd
kts
Gust
kts
hPa Trend Height
m
Period
s
Dir
28/11:30pm 8.3 N 5 7 - - 5.6 - - - - - - -
28/11:00pm 8.6 NNE 4 5 - - 5.6 - - - - - - -
28/10:30pm 8.7 N 5 6 - - 5.6 - - - - - - -
28/10:00pm 9.4 N 4 5 - - 5.6 - - - - - - -
28/09:30pm 9.4 N 6 7 - - 5.4 - - - - - - -
28/09:00pm 9.9 N 7 8 - - 5.4 - - - - - - -
28/08:30pm 8.9 N 5 7 - - 5.4 - - - - - - -
28/08:00pm 10.5 NNW 6 10 - - 5.4 - - - - - - -
28/07:30pm 10.7 NNW 7 9 - - 5.4 - - - - - - -
28/07:00pm 10.6 N 6 8 - - 5.4 - - - - - - -
28/06:30pm 10.8 NNW 4 6 - - 5.4 - - - - - - -
28/06:00pm 10.8 NW 3 5 - - 5.4 - - - - - - -
28/05:30pm 11.3 WNW 4 5 - - 5.4 - - - - - - -
28/05:00pm 11.4 NW 5 7 - - 5.4 - - - - - - -
28/04:30pm 11.6 NW 8 10 - - 5.4 - - - - - - -
28/04:00pm 11.7 NW 9 11 - - 4.6 - - - - - - -
28/03:30pm 12.0 WNW 9 14 - - 4.2 - - - - - - -
28/03:00pm 12.8 NW 11 14 - - 3.6 Recent precip. - - - - - -
28/02:30pm 13.0 NNW 12 17 - - 3.6 - - - - - - -
28/02:00pm 13.6 NNW 15 21 - - 3.4 - - - - - - -
28/01:30pm 14.1 NW 15 19 - - 3.4 - - - - - - -
28/01:00pm 14.2 NW 16 22 - - 3.4 - - - - - - -
28/12:30pm 14.1 NW 16 21 - - 3.4 - - - - - - -
28/12:00pm 14.3 NW 16 22 - - 3.4 - - - - - - -
28/11:30am 13.5 NW 17 24 - - 3.4 - - - - - - -
28/11:00am 14.0 NW 14 20 - - 3.4 - - - - - - -
28/10:30am 13.4 NW 11 20 - - 3.4 - - - - - - -
28/10:00am 12.2 WNW 8 11 - - 3.4 - - - - - - -
28/09:30am 11.7 WNW 9 13 - - 2.8 - - - - - - -
28/09:00am 11.7 WNW 8 11 - - 4.4 - - - - - - -
28/08:30am 11.3 NW 7 10 - - 4.4 - - - - - - -
28/08:00am 10.9 NNW 4 5 - - 4.4 - - - - - - -
28/07:30am 10.3 NNW 4 5 - - 3.6 - - - - - - -
28/07:00am 10.4 NW 6 8 - - 3.6 - - - - - - -
28/06:30am 10.8 NW 5 6 - - 3.6 - - - - - - -
28/06:00am 10.7 WNW 4 5 - - 2.8 Rain - - - - - -
28/05:30am 10.6 WNW 11 16 - - 1.8 - - - - - - -
28/05:00am 11.0 NW 7 9 - - 1.0 - - - - - - -
28/04:30am 10.1 NW 5 7 - - 0.6 - - - - - - -
28/04:00am 10.1 NNW 6 9 - - 0.6 - - - - - - -
28/03:30am 10.3 NNW 5 6 - - 0.6 - - - - - - -
28/03:00am 9.7 NNW 5 7 - - 0.6 - - - - - - -
28/02:30am 10.5 NW 6 7 - - 0.6 - - - - - - -
28/02:00am 10.4 NW 5 7 - - 0.6 - - - - - - -
28/01:30am 10.9 NW 8 10 - - 0.4 - - - - - - -
28/01:00am 10.0 NNW 6 8 - - 0.4 - - - - - - -
28/12:30am 9.8 NNW 4 5 - - 0.4 - - - - - - -
28/12:00am 10.2 NNW 5 6 - - 0.4 Recent precip. - - - - - -
 
Date/Time
CST
Temp
°C
Wind Pressure Rain since
9am
mm
Weather Cloud Vis
km
Sea
Height
m
Swell
Dir  Spd
kts
Gust
kts
hPa Trend Height
m
Period
s
Dir
27/11:30pm 9.5 NW 5 5 - - 0.4 - - - - - - -
27/11:00pm 9.1 NW 6 7 - - 0.0 - - - - - - -
27/10:30pm 8.8 NW 6 8 - - 0.0 - - - - - - -
27/10:00pm 8.6 NW 6 7 - - 0.0 - - - - - - -
27/09:30pm 8.7 NW 5 6 - - 0.0 - - - - - - -
27/09:00pm 9.2 NW 8 10 - - 0.0 - - - - - - -
27/08:30pm 8.4 NW 7 9 - - 0.0 - - - - - - -
27/08:00pm 8.0 NW 6 7 - - 0.0 - - - - - - -
27/07:30pm 8.1 NW 6 8 - - 0.0 - - - - - - -
27/07:00pm 7.9 NW 6 7 - - 0.0 - - - - - - -
27/06:30pm 8.4 NW 6 7 - - 0.0 - - - - - - -
27/06:00pm 9.1 NW 5 6 - - 0.0 - - - - - - -
27/05:30pm 9.8 WNW 6 8 - - 0.0 - - - - - - -
27/05:00pm 11.6 WNW 8 11 - - 0.0 - - - - - - -
27/04:30pm 12.5 WNW 9 11 - - 0.0 - - - - - - -
27/04:00pm 12.9 WNW 10 15 - - 0.0 - - - - - - -
27/03:30pm 13.0 W 6 11 - - 0.0 - - - - - - -
27/03:00pm 13.5 WNW 8 11 - - 0.0 - - - - - - -
27/02:30pm 13.7 WNW 8 15 - - 0.0 - - - - - - -
27/02:00pm 13.7 WNW 12 16 - - 0.0 - - - - - - -
27/01:30pm 14.4 W 11 16 - - 0.0 - - - - - - -
27/01:00pm 13.2 WNW 4 5 - - 0.0 - - - - - - -
27/12:30pm 13.2 WNW 9 14 - - 0.0 - - - - - - -
27/12:00pm 13.1 WNW 11 15 - - 0.0 - - - - - - -
27/11:30am 12.4 W 13 16 - - 0.0 - - - - - - -
27/11:00am 13.0 W 6 9 - - 0.0 - - - - - - -
27/10:30am 11.4 W 6 7 - - 0.0 - - - - - - -
27/10:00am 11.0 WSW 6 9 - - 0.0 - - - - - - -
27/09:30am 10.2 W 5 6 - - 0.0 - - - - - - -
27/09:00am 8.9 WNW 4 5 - - 0.4 - - - - - - -
27/08:30am 6.7 WNW 5 6 - - 0.4 - - - - - - -
27/08:00am 5.8 WNW 5 5 - - 0.4 - - - - - - -
27/07:30am 5.0 WNW 4 4 - - 0.4 - - - - - - -
27/07:00am 5.3 WNW 5 6 - - 0.4 - - - - - - -
27/06:30am 5.5 W 5 6 - - 0.4 - - - - - - -
27/06:00am 4.9 W 5 6 - - 0.4 Recent precip. - - - - - -
27/05:30am 4.8 W 5 6 - - 0.2 - - - - - - -
27/05:00am 5.2 W 6 7 - - 0.2 - - - - - - -
27/04:30am 5.9 SW 5 5 - - 0.2 - - - - - - -
27/04:00am 6.3 SW 6 8 - - 0.2 - - - - - - -
27/03:30am 6.5 SW 6 7 - - 0.2 - - - - - - -
27/03:00am 7.1 SW 7 8 - - 0.2 - - - - - - -
27/02:30am 7.4 SW 7 10 - - 0.2 - - - - - - -
27/02:00am 8.0 SSW 7 8 - - 0.2 - - - - - - -
27/01:30am 8.0 SW 8 10 - - 0.2 - - - - - - -
27/01:00am 8.1 SW 7 9 - - 0.2 - - - - - - -
27/12:30am 9.0 SW 5 7 - - 0.2 - - - - - - -
27/12:00am 9.5 SSW 7 10 - - 0.2 - - - - - - -
 
Date/Time
CST
Temp
°C
Wind Pressure Rain since
9am
mm
Weather Cloud Vis
km
Sea
Height
m
Swell
Dir  Spd
kts
Gust
kts
hPa Trend Height
m
Period
s
Dir
26/11:30pm 9.4 SW 9 14 - - 0.2 - - - - - - -
26/11:00pm 8.7 WSW 5 7 - - 0.2 - - - - - - -
26/10:30pm 8.4 WNW 5 8 - - 0.2 - - - - - - -
26/10:00pm 8.1 NW 4 6 - - 0.2 - - - - - - -
26/09:30pm 8.0 NW 4 5 - - 0.2 - - - - - - -
26/09:00pm 7.8 NW 4 5 - - 0.0 - - - - - - -
26/08:30pm 7.6 NW 5 6 - - 0.0 - - - - - - -
26/08:00pm 8.3 NW 4 5 - - 0.0 - - - - - - -
26/07:30pm 8.4 NNW 5 6 - - 0.0 - - - - - - -
26/07:00pm 8.5 NNW 6 7 - - 0.0 - - - - - - -

Other Formats:

Comma delimited format used in spreadsheet applications
http://www.bom.gov.au/fwo/IDS60701/IDS60701.94807.axf

JavaScript Object Notation format (JSON) in row-major order
http://www.bom.gov.au/fwo/IDS60701/IDS60701.94807.json